DFFD/OUA METAR and TAF weather

Enter ICAO airport designator
Station Type Date Time Source
DFFD METAR 2021/01/17 19:00 UTC NOAA

DFFD 171900Z 03003KT 8000 NSC 28/01 Q1010 NOSIG


Station Type Date Time Source
DFFD Decoded METAR 2021/01/17 19:00 UTC NOAA

Ouagadougou, Burkina Faso (DFFD) 12-21N 001-31W 306M
Jan 17, 2021 - 02:00 PM EST / 2021.01.17 1900 UTC
Wind: from the NNE (030 degrees) at 3 MPH (3 KT):0
Visibility: 4 mile(s):0
Temperature: 82 F (28 C)
Dew Point: 33 F (1 C)
Relative Humidity: 17%
Pressure (altimeter): 29.83 in. Hg (1010 hPa)
ob: DFFD 171900Z 03003KT 8000 NSC 28/01 Q1010 NOSIG
cycle: 19

Station Type Date Time Source
DFFD TAF 2021/01/17 18:12 UTC NOAA

TAF TAF DFFD 171700Z 1718/1824 06010KT 8000 NSC PROB30
TEMPO 1806/1810 4000 HZ

Example: see airport list